sensor_id;sensor_type;location;lat;lon;timestamp;P1;durP1;ratioP1;P2;durP2;ratioP2
64868;SDS011;51349;52.424;10.840;2022-07-05T00:01:17;3.00;;;2.13;;
64868;SDS011;51349;52.424;10.840;2022-07-05T00:06:17;4.07;;;2.60;;
64868;SDS011;51349;52.424;10.840;2022-07-05T00:11:18;2.85;;;2.30;;
64868;SDS011;51349;52.424;10.840;2022-07-05T00:16:19;4.55;;;2.17;;
64868;SDS011;51349;52.424;10.840;2022-07-05T00:21:19;4.50;;;2.22;;
64868;SDS011;51349;52.424;10.840;2022-07-05T00:26:20;2.72;;;1.92;;
64868;SDS011;51349;52.424;10.840;2022-07-05T00:31:20;3.38;;;2.17;;
64868;SDS011;51349;52.424;10.840;2022-07-05T00:36:21;3.05;;;2.30;;
64868;SDS011;51349;52.424;10.840;2022-07-05T00:41:22;4.05;;;2.20;;
64868;SDS011;51349;52.424;10.840;2022-07-05T00:46:22;2.50;;;2.30;;
64868;SDS011;51349;52.424;10.840;2022-07-05T00:51:23;3.03;;;1.95;;
64868;SDS011;51349;52.424;10.840;2022-07-05T00:56:25;2.75;;;1.95;;
64868;SDS011;51349;52.424;10.840;2022-07-05T01:01:27;2.67;;;2.00;;
64868;SDS011;51349;52.424;10.840;2022-07-05T01:06:28;2.85;;;2.35;;
64868;SDS011;51349;52.424;10.840;2022-07-05T01:11:28;3.67;;;2.38;;
64868;SDS011;51349;52.424;10.840;2022-07-05T01:16:29;4.18;;;2.65;;
64868;SDS011;51349;52.424;10.840;2022-07-05T01:21:30;4.15;;;2.35;;
64868;SDS011;51349;52.424;10.840;2022-07-05T01:26:32;4.35;;;2.25;;
64868;SDS011;51349;52.424;10.840;2022-07-05T01:31:37;2.40;;;2.20;;
64868;SDS011;51349;52.424;10.840;2022-07-05T01:36:38;5.97;;;2.40;;
64868;SDS011;51349;52.424;10.840;2022-07-05T01:41:39;2.50;;;2.30;;
64868;SDS011;51349;52.424;10.840;2022-07-05T01:46:40;4.85;;;2.40;;
64868;SDS011;51349;52.424;10.840;2022-07-05T01:51:41;4.57;;;2.42;;
64868;SDS011;51349;52.424;10.840;2022-07-05T01:56:49;2.17;;;2.08;;
64868;SDS011;51349;52.424;10.840;2022-07-05T02:01:50;3.08;;;2.25;;
64868;SDS011;51349;52.424;10.840;2022-07-05T02:06:50;2.50;;;2.30;;
64868;SDS011;51349;52.424;10.840;2022-07-05T02:11:51;2.42;;;2.25;;
64868;SDS011;51349;52.424;10.840;2022-07-05T02:16:52;3.22;;;2.40;;
64868;SDS011;51349;52.424;10.840;2022-07-05T02:21:53;3.20;;;2.90;;
64868;SDS011;51349;52.424;10.840;2022-07-05T02:26:54;2.40;;;2.20;;
64868;SDS011;51349;52.424;10.840;2022-07-05T02:31:54;2.25;;;2.15;;
64868;SDS011;51349;52.424;10.840;2022-07-05T02:36:55;4.00;;;2.50;;
64868;SDS011;51349;52.424;10.840;2022-07-05T02:41:55;4.18;;;2.63;;
64868;SDS011;51349;52.424;10.840;2022-07-05T02:46:56;2.67;;;2.40;;
64868;SDS011;51349;52.424;10.840;2022-07-05T02:51:56;2.85;;;2.13;;
64868;SDS011;51349;52.424;10.840;2022-07-05T02:56:57;2.75;;;2.50;;
64868;SDS011;51349;52.424;10.840;2022-07-05T03:01:58;2.60;;;2.38;;
64868;SDS011;51349;52.424;10.840;2022-07-05T03:06:58;3.30;;;2.40;;
64868;SDS011;51349;52.424;10.840;2022-07-05T03:11:59;3.25;;;2.75;;
64868;SDS011;51349;52.424;10.840;2022-07-05T03:17:00;3.47;;;2.80;;
64868;SDS011;51349;52.424;10.840;2022-07-05T03:22:01;2.33;;;2.22;;
64868;SDS011;51349;52.424;10.840;2022-07-05T03:27:01;2.60;;;2.50;;
64868;SDS011;51349;52.424;10.840;2022-07-05T03:32:02;2.60;;;2.35;;
64868;SDS011;51349;52.424;10.840;2022-07-05T03:37:03;5.93;;;2.60;;
64868;SDS011;51349;52.424;10.840;2022-07-05T03:42:04;2.95;;;2.63;;
64868;SDS011;51349;52.424;10.840;2022-07-05T03:47:05;2.53;;;2.42;;
64868;SDS011;51349;52.424;10.840;2022-07-05T03:52:05;3.70;;;2.83;;
64868;SDS011;51349;52.424;10.840;2022-07-05T03:57:07;3.47;;;2.70;;
64868;SDS011;51349;52.424;10.840;2022-07-05T04:02:08;3.17;;;2.63;;
64868;SDS011;51349;52.424;10.840;2022-07-05T04:07:08;2.80;;;2.53;;
64868;SDS011;51349;52.424;10.840;2022-07-05T04:12:09;2.88;;;2.67;;
64868;SDS011;51349;52.424;10.840;2022-07-05T04:17:10;2.70;;;2.58;;
64868;SDS011;51349;52.424;10.840;2022-07-05T04:22:10;2.85;;;2.65;;
64868;SDS011;51349;52.424;10.840;2022-07-05T04:27:11;3.97;;;2.78;;
64868;SDS011;51349;52.424;10.840;2022-07-05T04:32:11;3.92;;;3.00;;
64868;SDS011;51349;52.424;10.840;2022-07-05T04:37:15;4.60;;;3.00;;
64868;SDS011;51349;52.424;10.840;2022-07-05T04:42:16;6.28;;;4.07;;
64868;SDS011;51349;52.424;10.840;2022-07-05T04:47:19;3.60;;;3.10;;
64868;SDS011;51349;52.424;10.840;2022-07-05T04:52:20;4.05;;;3.00;;
64868;SDS011;51349;52.424;10.840;2022-07-05T04:57:20;4.43;;;3.10;;
64868;SDS011;51349;52.424;10.840;2022-07-05T05:02:21;2.95;;;2.75;;
64868;SDS011;51349;52.424;10.840;2022-07-05T05:07:22;4.22;;;3.22;;
64868;SDS011;51349;52.424;10.840;2022-07-05T05:12:22;4.65;;;3.40;;
64868;SDS011;51349;52.424;10.840;2022-07-05T05:17:23;6.15;;;3.03;;
64868;SDS011;51349;52.424;10.840;2022-07-05T05:22:23;3.63;;;2.90;;
64868;SDS011;51349;52.424;10.840;2022-07-05T05:27:24;3.38;;;3.08;;
64868;SDS011;51349;52.424;10.840;2022-07-05T05:32:24;4.28;;;3.13;;
64868;SDS011;51349;52.424;10.840;2022-07-05T05:37:25;4.65;;;2.80;;
64868;SDS011;51349;52.424;10.840;2022-07-05T05:42:26;3.03;;;2.80;;
64868;SDS011;51349;52.424;10.840;2022-07-05T05:47:26;4.03;;;2.95;;
64868;SDS011;51349;52.424;10.840;2022-07-05T05:52:27;3.72;;;2.47;;
64868;SDS011;51349;52.424;10.840;2022-07-05T05:57:28;3.22;;;2.67;;
64868;SDS011;51349;52.424;10.840;2022-07-05T06:02:32;4.97;;;2.65;;
64868;SDS011;51349;52.424;10.840;2022-07-05T06:07:55;2.95;;;2.33;;
64868;SDS011;51349;52.424;10.840;2022-07-05T06:12:57;4.43;;;2.53;;
64868;SDS011;51349;52.424;10.840;2022-07-05T06:17:59;3.72;;;2.60;;
64868;SDS011;51349;52.424;10.840;2022-07-05T06:23:01;3.72;;;2.78;;
64868;SDS011;51349;52.424;10.840;2022-07-05T06:28:04;3.88;;;2.35;;
64868;SDS011;51349;52.424;10.840;2022-07-05T06:33:06;3.17;;;2.20;;
64868;SDS011;51349;52.424;10.840;2022-07-05T06:38:08;4.72;;;1.98;;
64868;SDS011;51349;52.424;10.840;2022-07-05T06:43:10;4.03;;;2.10;;
64868;SDS011;51349;52.424;10.840;2022-07-05T06:48:12;3.67;;;2.03;;
64868;SDS011;51349;52.424;10.840;2022-07-05T06:53:12;3.35;;;1.80;;
64868;SDS011;51349;52.424;10.840;2022-07-05T06:58:13;2.45;;;1.77;;
64868;SDS011;51349;52.424;10.840;2022-07-05T07:03:13;4.18;;;2.22;;
64868;SDS011;51349;52.424;10.840;2022-07-05T07:08:15;1.98;;;1.77;;
64868;SDS011;51349;52.424;10.840;2022-07-05T07:13:34;4.03;;;1.60;;
64868;SDS011;51349;52.424;10.840;2022-07-05T07:18:34;1.98;;;1.65;;
64868;SDS011;51349;52.424;10.840;2022-07-05T07:23:35;2.10;;;1.60;;
64868;SDS011;51349;52.424;10.840;2022-07-05T07:28:36;1.98;;;1.80;;
64868;SDS011;51349;52.424;10.840;2022-07-05T07:33:36;3.65;;;1.67;;
64868;SDS011;51349;52.424;10.840;2022-07-05T07:38:37;3.22;;;2.10;;
64868;SDS011;51349;52.424;10.840;2022-07-05T07:43:38;3.67;;;2.15;;
64868;SDS011;51349;52.424;10.840;2022-07-05T07:48:38;4.72;;;1.98;;
64868;SDS011;51349;52.424;10.840;2022-07-05T07:53:39;3.30;;;1.98;;
64868;SDS011;51349;52.424;10.840;2022-07-05T07:58:39;2.72;;;2.22;;
64868;SDS011;51349;52.424;10.840;2022-07-05T08:03:40;2.17;;;1.98;;
64868;SDS011;51349;52.424;10.840;2022-07-05T08:08:42;2.38;;;1.73;;
64868;SDS011;51349;52.424;10.840;2022-07-05T08:13:44;2.63;;;1.80;;
64868;SDS011;51349;52.424;10.840;2022-07-05T08:18:45;3.28;;;2.00;;
64868;SDS011;51349;52.424;10.840;2022-07-05T08:24:05;3.28;;;1.70;;
64868;SDS011;51349;52.424;10.840;2022-07-05T08:29:08;2.75;;;1.80;;
64868;SDS011;51349;52.424;10.840;2022-07-05T08:34:10;4.75;;;2.10;;
64868;SDS011;51349;52.424;10.840;2022-07-05T08:39:12;3.55;;;1.90;;
64868;SDS011;51349;52.424;10.840;2022-07-05T08:44:14;3.35;;;2.13;;
64868;SDS011;51349;52.424;10.840;2022-07-05T08:49:25;4.20;;;2.15;;
64868;SDS011;51349;52.424;10.840;2022-07-05T08:54:27;2.25;;;2.00;;
64868;SDS011;51349;52.424;10.840;2022-07-05T08:59:28;2.72;;;1.70;;
64868;SDS011;51349;52.424;10.840;2022-07-05T09:04:33;4.53;;;1.95;;
64868;SDS011;51349;52.424;10.840;2022-07-05T09:09:37;3.38;;;1.73;;
64868;SDS011;51349;52.424;10.840;2022-07-05T09:14:42;3.63;;;1.50;;
64868;SDS011;51349;52.424;10.840;2022-07-05T09:19:43;2.50;;;1.50;;
64868;SDS011;51349;52.424;10.840;2022-07-05T09:24:50;1.92;;;1.73;;
64868;SDS011;51349;52.424;10.840;2022-07-05T09:29:52;3.13;;;1.77;;
64868;SDS011;51349;52.424;10.840;2022-07-05T09:34:56;1.70;;;1.60;;
64868;SDS011;51349;52.424;10.840;2022-07-05T09:39:58;3.47;;;1.70;;
64868;SDS011;51349;52.424;10.840;2022-07-05T09:44:59;1.75;;;1.60;;
64868;SDS011;51349;52.424;10.840;2022-07-05T09:49:59;3.47;;;1.60;;
64868;SDS011;51349;52.424;10.840;2022-07-05T10:00:12;1.60;;;1.50;;
64868;SDS011;51349;52.424;10.840;2022-07-05T10:05:15;1.42;;;1.35;;
64868;SDS011;51349;52.424;10.840;2022-07-05T10:10:27;1.95;;;1.35;;
64868;SDS011;51349;52.424;10.840;2022-07-05T10:15:30;1.58;;;1.40;;
64868;SDS011;51349;52.424;10.840;2022-07-05T10:20:39;1.48;;;1.38;;
64868;SDS011;51349;52.424;10.840;2022-07-05T10:25:42;2.50;;;1.30;;
64868;SDS011;51349;52.424;10.840;2022-07-05T10:30:48;1.52;;;1.30;;
64868;SDS011;51349;52.424;10.840;2022-07-05T10:35:52;1.50;;;1.35;;
64868;SDS011;51349;52.424;10.840;2022-07-05T10:40:54;1.58;;;1.42;;
64868;SDS011;51349;52.424;10.840;2022-07-05T10:45:58;1.73;;;1.27;;
64868;SDS011;51349;52.424;10.840;2022-07-05T10:56:15;1.15;;;1.15;;
64868;SDS011;51349;52.424;10.840;2022-07-05T11:06:22;1.52;;;1.42;;
64868;SDS011;51349;52.424;10.840;2022-07-05T11:11:34;1.48;;;1.30;;
64868;SDS011;51349;52.424;10.840;2022-07-05T11:16:36;1.48;;;1.20;;
64868;SDS011;51349;52.424;10.840;2022-07-05T11:22:00;1.77;;;1.17;;
64868;SDS011;51349;52.424;10.840;2022-07-05T11:27:11;1.50;;;1.40;;
64868;SDS011;51349;52.424;10.840;2022-07-05T11:42:32;2.28;;;1.25;;
64868;SDS011;51349;52.424;10.840;2022-07-05T11:47:35;1.60;;;1.30;;
64868;SDS011;51349;52.424;10.840;2022-07-05T11:52:36;1.58;;;1.40;;
64868;SDS011;51349;52.424;10.840;2022-07-05T11:57:37;1.25;;;1.02;;
64868;SDS011;51349;52.424;10.840;2022-07-05T12:02:48;1.45;;;1.27;;
64868;SDS011;51349;52.424;10.840;2022-07-05T12:07:50;1.50;;;1.23;;
64868;SDS011;51349;52.424;10.840;2022-07-05T12:12:51;3.50;;;1.50;;
64868;SDS011;51349;52.424;10.840;2022-07-05T12:17:53;1.88;;;1.30;;
64868;SDS011;51349;52.424;10.840;2022-07-05T12:22:54;3.67;;;1.48;;
64868;SDS011;51349;52.424;10.840;2022-07-05T12:27:56;2.75;;;1.40;;
64868;SDS011;51349;52.424;10.840;2022-07-05T12:38:11;3.47;;;1.35;;
64868;SDS011;51349;52.424;10.840;2022-07-05T12:43:15;2.38;;;1.27;;
64868;SDS011;51349;52.424;10.840;2022-07-05T12:48:17;1.27;;;1.17;;
64868;SDS011;51349;52.424;10.840;2022-07-05T12:53:33;1.58;;;1.13;;
64868;SDS011;51349;52.424;10.840;2022-07-05T12:58:53;1.67;;;0.98;;
64868;SDS011;51349;52.424;10.840;2022-07-05T13:04:06;4.05;;;1.02;;
64868;SDS011;51349;52.424;10.840;2022-07-05T13:09:09;0.85;;;0.85;;
64868;SDS011;51349;52.424;10.840;2022-07-05T13:14:11;2.50;;;0.88;;
64868;SDS011;51349;52.424;10.840;2022-07-05T13:19:11;1.23;;;0.90;;
64868;SDS011;51349;52.424;10.840;2022-07-05T13:24:12;1.05;;;0.90;;
64868;SDS011;51349;52.424;10.840;2022-07-05T13:29:13;1.02;;;1.02;;
64868;SDS011;51349;52.424;10.840;2022-07-05T13:34:13;0.90;;;0.90;;
64868;SDS011;51349;52.424;10.840;2022-07-05T13:39:14;1.00;;;0.90;;
64868;SDS011;51349;52.424;10.840;2022-07-05T13:44:15;2.20;;;0.73;;
64868;SDS011;51349;52.424;10.840;2022-07-05T13:49:15;1.00;;;1.00;;
64868;SDS011;51349;52.424;10.840;2022-07-05T13:54:16;0.82;;;0.82;;
64868;SDS011;51349;52.424;10.840;2022-07-05T13:59:17;1.33;;;1.10;;
64868;SDS011;51349;52.424;10.840;2022-07-05T14:04:17;1.08;;;0.90;;
64868;SDS011;51349;52.424;10.840;2022-07-05T14:09:18;3.42;;;0.90;;
64868;SDS011;51349;52.424;10.840;2022-07-05T14:14:22;2.47;;;0.80;;
64868;SDS011;51349;52.424;10.840;2022-07-05T14:19:22;1.63;;;0.82;;
64868;SDS011;51349;52.424;10.840;2022-07-05T14:24:23;1.17;;;1.08;;
64868;SDS011;51349;52.424;10.840;2022-07-05T14:29:23;0.90;;;0.90;;
64868;SDS011;51349;52.424;10.840;2022-07-05T14:34:24;2.60;;;1.25;;
64868;SDS011;51349;52.424;10.840;2022-07-05T14:39:25;1.67;;;0.88;;
64868;SDS011;51349;52.424;10.840;2022-07-05T14:44:26;1.25;;;0.80;;
64868;SDS011;51349;52.424;10.840;2022-07-05T14:49:26;2.58;;;1.05;;
64868;SDS011;51349;52.424;10.840;2022-07-05T14:54:27;1.45;;;0.85;;
64868;SDS011;51349;52.424;10.840;2022-07-05T14:59:28;2.78;;;0.90;;
64868;SDS011;51349;52.424;10.840;2022-07-05T15:04:28;0.80;;;0.80;;
64868;SDS011;51349;52.424;10.840;2022-07-05T15:09:29;2.30;;;1.00;;
64868;SDS011;51349;52.424;10.840;2022-07-05T15:14:29;3.00;;;1.00;;
64868;SDS011;51349;52.424;10.840;2022-07-05T15:19:30;1.83;;;1.00;;
64868;SDS011;51349;52.424;10.840;2022-07-05T15:24:31;1.73;;;0.90;;
64868;SDS011;51349;52.424;10.840;2022-07-05T15:29:31;1.85;;;1.00;;
64868;SDS011;51349;52.424;10.840;2022-07-05T15:34:32;2.58;;;0.80;;
64868;SDS011;51349;52.424;10.840;2022-07-05T15:39:33;1.17;;;0.98;;
64868;SDS011;51349;52.424;10.840;2022-07-05T15:44:34;2.15;;;0.95;;
64868;SDS011;51349;52.424;10.840;2022-07-05T15:49:38;1.20;;;1.10;;
64868;SDS011;51349;52.424;10.840;2022-07-05T15:54:38;1.08;;;1.02;;
64868;SDS011;51349;52.424;10.840;2022-07-05T15:59:39;1.70;;;1.00;;
64868;SDS011;51349;52.424;10.840;2022-07-05T16:04:40;1.73;;;1.00;;
64868;SDS011;51349;52.424;10.840;2022-07-05T16:09:46;1.27;;;1.17;;
64868;SDS011;51349;52.424;10.840;2022-07-05T16:14:49;1.58;;;1.02;;
64868;SDS011;51349;52.424;10.840;2022-07-05T16:19:50;2.10;;;1.00;;
64868;SDS011;51349;52.424;10.840;2022-07-05T16:24:51;0.77;;;0.77;;
64868;SDS011;51349;52.424;10.840;2022-07-05T16:29:51;1.27;;;1.10;;
64868;SDS011;51349;52.424;10.840;2022-07-05T16:34:52;1.23;;;1.10;;
64868;SDS011;51349;52.424;10.840;2022-07-05T16:39:52;1.20;;;1.10;;
64868;SDS011;51349;52.424;10.840;2022-07-05T16:44:53;1.27;;;1.17;;
64868;SDS011;51349;52.424;10.840;2022-07-05T16:49:53;1.15;;;1.10;;
64868;SDS011;51349;52.424;10.840;2022-07-05T16:54:54;1.67;;;0.90;;
64868;SDS011;51349;52.424;10.840;2022-07-05T16:59:55;1.35;;;1.10;;
64868;SDS011;51349;52.424;10.840;2022-07-05T17:04:55;1.17;;;1.05;;
64868;SDS011;51349;52.424;10.840;2022-07-05T17:09:56;0.80;;;0.80;;
64868;SDS011;51349;52.424;10.840;2022-07-05T17:14:57;1.20;;;1.10;;
64868;SDS011;51349;52.424;10.840;2022-07-05T17:19:58;0.90;;;0.90;;
64868;SDS011;51349;52.424;10.840;2022-07-05T17:24:58;1.17;;;1.10;;
64868;SDS011;51349;52.424;10.840;2022-07-05T17:29:59;1.15;;;0.90;;
64868;SDS011;51349;52.424;10.840;2022-07-05T17:34:59;1.40;;;1.00;;
64868;SDS011;51349;52.424;10.840;2022-07-05T17:40:00;2.15;;;1.00;;
64868;SDS011;51349;52.424;10.840;2022-07-05T17:45:01;1.25;;;1.15;;
64868;SDS011;51349;52.424;10.840;2022-07-05T17:50:02;2.38;;;1.10;;
64868;SDS011;51349;52.424;10.840;2022-07-05T17:55:03;0.90;;;0.90;;
64868;SDS011;51349;52.424;10.840;2022-07-05T18:00:05;1.55;;;1.45;;
64868;SDS011;51349;52.424;10.840;2022-07-05T18:05:06;1.02;;;0.93;;
64868;SDS011;51349;52.424;10.840;2022-07-05T18:10:07;1.35;;;1.13;;
64868;SDS011;51349;52.424;10.840;2022-07-05T18:15:08;1.38;;;1.08;;
64868;SDS011;51349;52.424;10.840;2022-07-05T18:20:09;1.35;;;1.10;;
64868;SDS011;51349;52.424;10.840;2022-07-05T18:25:10;1.85;;;0.95;;
64868;SDS011;51349;52.424;10.840;2022-07-05T18:30:10;0.95;;;0.93;;
64868;SDS011;51349;52.424;10.840;2022-07-05T18:35:11;1.60;;;0.95;;
64868;SDS011;51349;52.424;10.840;2022-07-05T18:40:12;1.17;;;0.82;;
64868;SDS011;51349;52.424;10.840;2022-07-05T18:45:13;1.35;;;1.08;;
64868;SDS011;51349;52.424;10.840;2022-07-05T18:50:15;1.50;;;1.10;;
64868;SDS011;51349;52.424;10.840;2022-07-05T18:55:16;2.55;;;1.25;;
64868;SDS011;51349;52.424;10.840;2022-07-05T19:00:17;1.27;;;1.20;;
64868;SDS011;51349;52.424;10.840;2022-07-05T19:05:20;3.03;;;1.13;;
64868;SDS011;51349;52.424;10.840;2022-07-05T19:10:21;1.00;;;1.00;;
64868;SDS011;51349;52.424;10.840;2022-07-05T19:15:40;4.10;;;1.10;;
64868;SDS011;51349;52.424;10.840;2022-07-05T19:20:41;1.40;;;1.15;;
64868;SDS011;51349;52.424;10.840;2022-07-05T19:25:42;1.17;;;1.17;;
64868;SDS011;51349;52.424;10.840;2022-07-05T19:30:42;1.30;;;1.20;;
64868;SDS011;51349;52.424;10.840;2022-07-05T19:35:43;1.35;;;1.20;;
64868;SDS011;51349;52.424;10.840;2022-07-05T19:40:44;1.75;;;1.20;;
64868;SDS011;51349;52.424;10.840;2022-07-05T19:45:49;1.08;;;1.08;;
64868;SDS011;51349;52.424;10.840;2022-07-05T19:50:49;1.40;;;1.30;;
64868;SDS011;51349;52.424;10.840;2022-07-05T19:55:50;1.30;;;1.13;;
64868;SDS011;51349;52.424;10.840;2022-07-05T20:00:51;2.15;;;1.08;;
64868;SDS011;51349;52.424;10.840;2022-07-05T20:05:52;1.45;;;1.23;;
64868;SDS011;51349;52.424;10.840;2022-07-05T20:10:53;2.53;;;1.20;;
64868;SDS011;51349;52.424;10.840;2022-07-05T20:15:53;3.13;;;1.20;;
64868;SDS011;51349;52.424;10.840;2022-07-05T20:20:57;2.30;;;1.25;;
64868;SDS011;51349;52.424;10.840;2022-07-05T20:25:59;2.20;;;1.33;;
64868;SDS011;51349;52.424;10.840;2022-07-05T20:31:00;1.75;;;1.10;;
64868;SDS011;51349;52.424;10.840;2022-07-05T20:36:00;1.33;;;1.17;;
64868;SDS011;51349;52.424;10.840;2022-07-05T20:41:01;2.75;;;1.20;;
64868;SDS011;51349;52.424;10.840;2022-07-05T20:46:02;1.63;;;1.05;;
64868;SDS011;51349;52.424;10.840;2022-07-05T20:51:02;2.25;;;1.20;;
64868;SDS011;51349;52.424;10.840;2022-07-05T20:56:03;1.23;;;1.13;;
64868;SDS011;51349;52.424;10.840;2022-07-05T21:01:04;1.23;;;1.15;;
64868;SDS011;51349;52.424;10.840;2022-07-05T21:06:04;2.28;;;1.30;;
64868;SDS011;51349;52.424;10.840;2022-07-05T21:11:05;1.20;;;1.10;;
64868;SDS011;51349;52.424;10.840;2022-07-05T21:16:06;2.30;;;1.00;;
64868;SDS011;51349;52.424;10.840;2022-07-05T21:21:06;3.17;;;1.60;;
64868;SDS011;51349;52.424;10.840;2022-07-05T21:26:07;1.88;;;1.13;;
64868;SDS011;51349;52.424;10.840;2022-07-05T21:31:08;1.20;;;1.20;;
64868;SDS011;51349;52.424;10.840;2022-07-05T21:36:08;1.20;;;1.10;;
64868;SDS011;51349;52.424;10.840;2022-07-05T21:41:09;4.57;;;1.30;;
64868;SDS011;51349;52.424;10.840;2022-07-05T21:46:10;1.63;;;1.45;;
64868;SDS011;51349;52.424;10.840;2022-07-05T21:51:11;1.98;;;1.20;;
64868;SDS011;51349;52.424;10.840;2022-07-05T21:56:12;2.65;;;1.23;;
64868;SDS011;51349;52.424;10.840;2022-07-05T22:01:12;3.92;;;1.30;;
64868;SDS011;51349;52.424;10.840;2022-07-05T22:06:31;2.50;;;1.20;;
64868;SDS011;51349;52.424;10.840;2022-07-05T22:11:32;2.28;;;1.35;;
64868;SDS011;51349;52.424;10.840;2022-07-05T22:16:35;2.75;;;1.45;;
64868;SDS011;51349;52.424;10.840;2022-07-05T22:21:36;1.30;;;1.20;;
64868;SDS011;51349;52.424;10.840;2022-07-05T22:26:37;3.58;;;1.30;;
64868;SDS011;51349;52.424;10.840;2022-07-05T22:31:38;1.65;;;1.23;;
64868;SDS011;51349;52.424;10.840;2022-07-05T22:36:38;1.80;;;1.20;;
64868;SDS011;51349;52.424;10.840;2022-07-05T22:41:39;1.20;;;1.10;;
64868;SDS011;51349;52.424;10.840;2022-07-05T22:46:40;2.78;;;1.40;;
64868;SDS011;51349;52.424;10.840;2022-07-05T22:51:41;2.22;;;1.50;;
64868;SDS011;51349;52.424;10.840;2022-07-05T22:56:42;3.47;;;1.30;;
64868;SDS011;51349;52.424;10.840;2022-07-05T23:01:42;2.65;;;1.35;;
64868;SDS011;51349;52.424;10.840;2022-07-05T23:06:43;2.10;;;1.50;;
64868;SDS011;51349;52.424;10.840;2022-07-05T23:11:43;1.50;;;1.40;;
64868;SDS011;51349;52.424;10.840;2022-07-05T23:16:44;1.70;;;1.20;;
64868;SDS011;51349;52.424;10.840;2022-07-05T23:21:45;2.63;;;1.40;;
64868;SDS011;51349;52.424;10.840;2022-07-05T23:26:45;2.42;;;1.60;;
64868;SDS011;51349;52.424;10.840;2022-07-05T23:31:46;2.67;;;1.58;;
64868;SDS011;51349;52.424;10.840;2022-07-05T23:36:46;2.65;;;1.60;;
64868;SDS011;51349;52.424;10.840;2022-07-05T23:41:47;1.70;;;1.60;;
64868;SDS011;51349;52.424;10.840;2022-07-05T23:46:47;2.92;;;1.52;;
64868;SDS011;51349;52.424;10.840;2022-07-05T23:51:48;3.15;;;1.45;;
64868;SDS011;51349;52.424;10.840;2022-07-05T23:56:49;1.73;;;1.40;;
